createdAt,value
2022-10-29T00:00:17.331Z,6.43
2022-10-29T00:02:07.904Z,7.22
2022-10-29T00:03:58.488Z,7.35
2022-10-29T00:05:59.439Z,7.65
2022-10-29T00:07:50.438Z,6.63
2022-10-29T00:09:40.886Z,7.18
2022-10-29T00:11:33.775Z,9.27
2022-10-29T00:13:24.021Z,8.27
2022-10-29T00:15:14.578Z,8.68
2022-10-29T00:17:05.162Z,8.18
2022-10-29T00:18:56.329Z,8.35
2022-10-29T00:20:46.753Z,7.53
2022-10-29T00:22:37.296Z,6.40
2022-10-29T00:24:27.714Z,6.65
2022-10-29T00:26:19.840Z,6.20
2022-10-29T00:28:11.311Z,7.53
2022-10-29T00:30:01.704Z,6.47
2022-10-29T00:31:52.618Z,7.32
2022-10-29T00:33:43.659Z,7.18
2022-10-29T00:35:34.040Z,7.38
2022-10-29T00:37:24.387Z,6.45
2022-10-29T00:39:15.835Z,6.72
2022-10-29T00:41:07.779Z,7.53
2022-10-29T00:43:13.564Z,6.72
2022-10-29T00:45:04.520Z,7.43
2022-10-29T00:47:02.077Z,7.93
2022-10-29T00:48:54.354Z,8.98
2022-10-29T00:50:46.370Z,7.40
2022-10-29T00:52:39.239Z,8.10
2022-10-29T00:54:30.952Z,9.30
2022-10-29T00:56:22.376Z,9.60
2022-10-29T00:58:14.572Z,8.48
2022-10-29T01:01:56.486Z,8.15
2022-10-29T01:03:47.402Z,8.20
2022-10-29T01:05:37.982Z,9.82
2022-10-29T01:07:29.245Z,9.48
2022-10-29T01:09:19.427Z,7.00
2022-10-29T01:11:19.134Z,6.85
2022-10-29T01:13:21.465Z,8.63
2022-10-29T01:17:09.614Z,8.57
2022-10-29T01:19:05.170Z,9.13
2022-10-29T01:21:17.025Z,10.18
2022-10-29T01:23:20.389Z,11.63
2022-10-29T01:25:32.364Z,10.90
2022-10-29T01:27:43.836Z,11.73
2022-10-29T01:29:50.990Z,13.32
2022-10-29T01:31:45.855Z,9.82
2022-10-29T01:33:40.308Z,10.98
2022-10-29T01:35:36.867Z,9.68
2022-10-29T01:37:32.106Z,11.27
2022-10-29T01:39:30.200Z,10.48
2022-10-29T01:41:23.742Z,9.98
2022-10-29T01:43:17.913Z,10.60
2022-10-29T01:45:13.729Z,8.95
2022-10-29T01:47:08.014Z,8.48
2022-10-29T01:49:03.999Z,9.45
2022-10-29T01:50:57.056Z,8.50
2022-10-29T01:52:48.902Z,9.20
2022-10-29T01:54:41.273Z,9.07
2022-10-29T01:56:31.934Z,9.57
2022-10-29T01:58:23.832Z,10.55
2022-10-29T02:00:16.371Z,9.95
2022-10-29T02:04:06.802Z,11.57
2022-10-29T02:06:02.623Z,11.63
2022-10-29T02:07:57.024Z,10.82
2022-10-29T02:09:54.589Z,11.60
2022-10-29T02:11:50.687Z,10.80
2022-10-29T02:13:46.217Z,9.80
2022-10-29T02:15:38.800Z,10.02
2022-10-29T02:17:32.169Z,12.50
2022-10-29T02:19:22.831Z,13.13
2022-10-29T02:21:15.486Z,12.18
2022-10-29T02:23:06.233Z,10.43
2022-10-29T02:24:56.804Z,8.88
2022-10-29T02:26:47.082Z,9.90
2022-10-29T02:28:37.972Z,11.00
2022-10-29T02:30:28.559Z,10.75
2022-10-29T02:32:18.915Z,13.73
2022-10-29T02:34:10.991Z,13.23
2022-10-29T02:36:01.332Z,13.93
2022-10-29T02:37:51.569Z,11.45
2022-10-29T02:39:41.999Z,12.07
2022-10-29T02:41:32.215Z,12.15
2022-10-29T02:43:22.514Z,12.30
2022-10-29T02:45:12.734Z,12.73
2022-10-29T02:47:03.138Z,10.20
2022-10-29T02:48:53.390Z,11.82
2022-10-29T02:50:45.053Z,11.55
2022-10-29T02:52:35.654Z,10.88
2022-10-29T02:54:26.565Z,10.90
2022-10-29T02:56:16.937Z,11.65
2022-10-29T02:58:07.275Z,11.95
2022-10-29T02:59:57.643Z,12.52
2022-10-29T03:01:47.970Z,13.52
2022-10-29T03:03:38.357Z,14.40
2022-10-29T03:05:28.966Z,12.93
2022-10-29T03:07:20.946Z,12.43
2022-10-29T03:09:11.452Z,12.70
2022-10-29T03:11:01.803Z,11.68
2022-10-29T03:12:52.153Z,12.95
2022-10-29T03:14:42.378Z,14.02
2022-10-29T03:16:32.801Z,12.40
2022-10-29T03:18:23.218Z,10.40
2022-10-29T03:20:13.812Z,12.25
2022-10-29T03:22:04.106Z,13.65
2022-10-29T03:23:55.926Z,11.40
2022-10-29T03:25:54.568Z,11.70
2022-10-29T03:27:46.545Z,10.23
2022-10-29T03:29:37.047Z,11.50
2022-10-29T03:31:27.292Z,12.27
2022-10-29T03:33:17.594Z,12.38
2022-10-29T03:35:08.810Z,12.18
2022-10-29T03:36:59.447Z,11.43
2022-10-29T03:38:49.763Z,12.65
2022-10-29T03:40:43.174Z,11.13
2022-10-29T03:42:33.954Z,11.73
2022-10-29T03:44:24.285Z,11.45
2022-10-29T03:46:14.518Z,11.70
2022-10-29T03:48:05.244Z,13.48
2022-10-29T03:49:56.005Z,13.23
2022-10-29T03:51:46.291Z,13.43
2022-10-29T03:53:37.308Z,12.85
2022-10-29T03:55:27.643Z,12.38
2022-10-29T03:57:19.883Z,13.18
2022-10-29T04:01:07.059Z,11.65
2022-10-29T04:02:58.120Z,11.55
2022-10-29T04:04:49.074Z,11.57
2022-10-29T04:06:39.519Z,11.23
2022-10-29T04:08:29.868Z,11.45
2022-10-29T04:10:20.273Z,10.80
2022-10-29T04:12:10.904Z,12.65
2022-10-29T04:14:02.670Z,12.75
2022-10-29T04:15:54.215Z,12.82
2022-10-29T04:17:44.486Z,11.32
2022-10-29T04:19:35.136Z,10.95
2022-10-29T04:27:37.468Z,11.07
2022-10-29T04:30:17.488Z,10.77
2022-10-29T04:32:07.998Z,10.85
2022-10-29T04:33:58.278Z,11.38
2022-10-29T04:35:52.102Z,10.18
2022-10-29T04:37:42.347Z,11.27
2022-10-29T04:39:32.874Z,10.35
2022-10-29T04:41:23.265Z,11.45
2022-10-29T04:43:13.911Z,10.45
2022-10-29T04:45:05.907Z,10.00
2022-10-29T04:46:57.791Z,10.70
2022-10-29T04:48:48.096Z,11.23
2022-10-29T04:50:38.616Z,11.27
2022-10-29T04:52:29.253Z,12.13
2022-10-29T04:54:19.748Z,11.20
2022-10-29T04:56:10.078Z,12.25
2022-10-29T04:58:00.321Z,12.27
2022-10-29T04:59:50.935Z,11.85
2022-10-29T05:01:41.210Z,10.80
2022-10-29T05:03:33.311Z,10.88
2022-10-29T05:05:23.827Z,11.05
2022-10-29T05:07:14.084Z,11.70
2022-10-29T05:09:04.617Z,13.98
2022-10-29T05:10:55.113Z,12.32
2022-10-29T05:12:45.418Z,12.15
2022-10-29T05:14:37.737Z,12.63
2022-10-29T05:16:27.999Z,12.70
2022-10-29T05:18:18.259Z,11.90
2022-10-29T05:20:11.005Z,12.05
2022-10-29T05:22:01.758Z,11.30
2022-10-29T05:23:52.114Z,11.40
2022-10-29T05:25:42.848Z,11.27
2022-10-29T05:27:33.129Z,11.98
2022-10-29T05:29:23.442Z,11.23
2022-10-29T05:31:13.903Z,12.15
2022-10-29T05:33:06.352Z,10.20
2022-10-29T05:34:56.718Z,13.50
2022-10-29T05:36:48.354Z,12.40
2022-10-29T05:38:38.545Z,12.82
2022-10-29T05:40:29.089Z,12.90
2022-10-29T05:42:19.431Z,13.30
2022-10-29T05:44:09.788Z,14.23
2022-10-29T05:46:02.718Z,12.32
2022-10-29T05:47:56.002Z,13.40
2022-10-29T05:49:46.442Z,14.20
2022-10-29T05:51:36.979Z,11.90
2022-10-29T05:53:28.550Z,13.40
2022-10-29T05:55:18.917Z,14.88
2022-10-29T05:57:09.326Z,12.85
2022-10-29T05:58:59.917Z,12.60
2022-10-29T06:00:51.581Z,15.45
2022-10-29T06:02:43.438Z,14.00
2022-10-29T06:04:34.484Z,19.60
2022-10-29T06:06:24.697Z,17.15
2022-10-29T06:08:15.094Z,16.80
2022-10-29T06:10:08.069Z,18.50
2022-10-29T06:11:58.301Z,18.80
2022-10-29T06:13:48.835Z,20.20
2022-10-29T06:15:39.614Z,19.50
2022-10-29T06:17:30.086Z,18.70
2022-10-29T06:19:20.485Z,19.45
2022-10-29T06:21:11.170Z,19.52
2022-10-29T06:23:01.783Z,17.55
2022-10-29T06:24:52.377Z,19.02
2022-10-29T06:26:44.391Z,19.00
2022-10-29T06:28:35.093Z,19.77
2022-10-29T06:30:25.722Z,20.27
2022-10-29T06:32:16.339Z,17.88
2022-10-29T06:34:06.656Z,22.25
2022-10-29T06:35:58.698Z,19.33
2022-10-29T06:39:39.451Z,19.45
2022-10-29T06:41:29.628Z,19.65
2022-10-29T06:43:21.334Z,22.83
2022-10-29T06:45:12.099Z,21.08
2022-10-29T06:47:02.561Z,21.70
2022-10-29T06:48:53.115Z,22.42
2022-10-29T06:50:43.498Z,25.13
2022-10-29T06:52:33.859Z,22.50
2022-10-29T06:54:24.120Z,24.30
2022-10-29T06:56:14.451Z,24.85
2022-10-29T06:58:08.876Z,25.77
2022-10-29T07:00:05.605Z,24.48
2022-10-29T07:01:59.084Z,26.40
2022-10-29T07:03:50.154Z,23.73
2022-10-29T07:05:41.217Z,25.55
2022-10-29T07:07:31.654Z,27.55
2022-10-29T07:09:22.222Z,26.42
2022-10-29T07:11:12.688Z,27.95
2022-10-29T07:13:03.492Z,28.13
2022-10-29T07:14:53.997Z,28.08
2022-10-29T07:16:45.655Z,28.83
2022-10-29T07:18:35.940Z,25.38
2022-10-29T07:20:26.574Z,25.25
2022-10-29T07:22:17.026Z,25.00
2022-10-29T07:24:08.047Z,24.63
2022-10-29T07:25:58.697Z,27.58
2022-10-29T07:27:50.164Z,28.67
2022-10-29T07:29:40.559Z,26.15
2022-10-29T07:31:31.371Z,25.98
2022-10-29T07:33:22.970Z,25.83
2022-10-29T07:35:13.376Z,24.98
2022-10-29T07:37:03.662Z,24.02
2022-10-29T07:38:53.891Z,24.45
2022-10-29T07:40:47.448Z,24.00
2022-10-29T07:42:38.012Z,24.58
2022-10-29T07:44:28.455Z,27.70
2022-10-29T07:46:18.945Z,25.02
2022-10-29T07:48:09.791Z,23.90
2022-10-29T07:50:01.801Z,25.48
2022-10-29T07:51:52.010Z,23.73
2022-10-29T07:53:42.529Z,26.08
2022-10-29T07:55:33.066Z,25.60
2022-10-29T07:57:23.371Z,24.73
2022-10-29T07:59:13.662Z,26.45
2022-10-29T08:01:03.961Z,27.67
2022-10-29T08:02:54.851Z,23.80
2022-10-29T08:04:45.428Z,24.55
2022-10-29T08:06:37.092Z,24.67
2022-10-29T08:08:27.829Z,24.77
2022-10-29T08:10:18.226Z,24.80
2022-10-29T08:12:09.739Z,23.58
2022-10-29T08:14:00.048Z,24.93
2022-10-29T08:15:50.250Z,27.30
2022-10-29T08:17:40.931Z,24.13
2022-10-29T08:19:31.048Z,27.83
2022-10-29T08:21:21.824Z,26.80
2022-10-29T08:23:14.085Z,27.95
2022-10-29T08:25:05.699Z,28.30
2022-10-29T08:26:56.426Z,28.02
2022-10-29T08:28:47.094Z,29.13
2022-10-29T08:30:37.812Z,29.42
2022-10-29T08:32:28.330Z,29.38
2022-10-29T08:34:18.661Z,26.73
2022-10-29T08:36:09.057Z,28.90
2022-10-29T08:37:59.898Z,27.17
2022-10-29T08:39:51.738Z,30.00
2022-10-29T08:43:59.201Z,25.35
2022-10-29T08:45:51.271Z,27.58
2022-10-29T08:47:51.805Z,27.25
2022-10-29T08:49:45.938Z,25.50
2022-10-29T08:51:37.606Z,28.50
2022-10-29T08:53:34.787Z,27.50
2022-10-29T08:55:33.660Z,25.52
2022-10-29T08:57:25.391Z,27.58
2022-10-29T08:59:17.495Z,25.38
2022-10-29T09:01:11.159Z,25.13
2022-10-29T09:03:01.832Z,26.15
2022-10-29T09:04:52.080Z,28.60
2022-10-29T09:06:47.257Z,26.88
2022-10-29T09:08:44.569Z,25.75
2022-10-29T09:10:41.496Z,24.35
2022-10-29T09:12:44.288Z,23.88
2022-10-29T09:16:44.108Z,25.25
2022-10-29T09:18:46.451Z,24.38
2022-10-29T09:22:37.300Z,25.10
2022-10-29T09:24:33.295Z,25.75
2022-10-29T09:26:30.831Z,25.17
2022-10-29T09:28:28.200Z,22.50
2022-10-29T09:30:19.973Z,24.75
2022-10-29T09:32:13.201Z,22.88
2022-10-29T09:34:12.312Z,23.63
2022-10-29T09:36:05.261Z,23.27
2022-10-29T09:38:00.469Z,23.48
2022-10-29T09:39:51.275Z,21.80
2022-10-29T09:41:44.634Z,23.27
2022-10-29T09:43:40.896Z,22.05
2022-10-29T09:45:41.158Z,23.27
2022-10-29T09:47:39.043Z,21.77
2022-10-29T09:49:39.155Z,23.63
2022-10-29T09:51:37.350Z,22.20
2022-10-29T09:53:27.999Z,22.63
2022-10-29T09:55:21.640Z,23.35
2022-10-29T09:57:19.127Z,21.13
2022-10-29T09:59:17.528Z,20.30
2022-10-29T10:01:08.189Z,17.25
2022-10-29T10:03:03.260Z,17.60
2022-10-29T10:04:56.492Z,17.73
2022-10-29T10:07:05.974Z,16.80
2022-10-29T10:08:59.689Z,16.90
2022-10-29T10:10:52.025Z,16.75
2022-10-29T10:14:37.603Z,16.42
2022-10-29T10:16:29.616Z,15.25
2022-10-29T10:18:22.026Z,15.80
2022-10-29T10:20:35.864Z,15.55
2022-10-29T10:22:26.467Z,15.43
2022-10-29T10:24:29.696Z,16.60
2022-10-29T10:26:32.387Z,15.73
2022-10-29T10:30:15.701Z,15.30
2022-10-29T10:32:15.606Z,16.00
2022-10-29T10:34:14.353Z,15.70
2022-10-29T10:36:06.885Z,15.60
2022-10-29T10:37:57.961Z,14.35
2022-10-29T10:39:51.541Z,14.20
2022-10-29T10:41:42.691Z,14.15
2022-10-29T10:43:34.827Z,14.70
2022-10-29T10:45:27.667Z,13.73
2022-10-29T10:47:20.147Z,13.52
2022-10-29T10:49:15.057Z,12.63
2022-10-29T10:51:10.390Z,12.05
2022-10-29T10:53:04.489Z,12.80
2022-10-29T10:54:57.923Z,14.02
2022-10-29T10:56:53.706Z,12.60
2022-10-29T10:58:50.150Z,11.98
2022-10-29T11:00:43.301Z,11.23
2022-10-29T11:02:39.461Z,11.77
2022-10-29T11:04:33.228Z,12.57
2022-10-29T11:06:26.997Z,10.75
2022-10-29T11:08:19.827Z,10.98
2022-10-29T11:10:12.531Z,11.45
2022-10-29T11:14:00.309Z,10.68
2022-10-29T11:15:54.193Z,10.80
2022-10-29T11:17:51.449Z,11.15
2022-10-29T11:19:48.369Z,9.73
2022-10-29T11:21:42.683Z,10.32
2022-10-29T11:23:42.411Z,9.57
2022-10-29T11:25:39.849Z,9.25
2022-10-29T11:27:36.524Z,10.02
2022-10-29T11:29:38.614Z,9.00
2022-10-29T11:31:36.410Z,9.55
2022-10-29T11:33:33.495Z,10.02
2022-10-29T11:35:38.831Z,10.10
2022-10-29T11:37:33.842Z,10.20
2022-10-29T11:39:28.278Z,10.75
2022-10-29T11:41:23.716Z,8.75
2022-10-29T11:43:17.751Z,9.20
2022-10-29T11:45:12.037Z,9.00
2022-10-29T11:47:12.421Z,8.82
2022-10-29T11:49:14.121Z,9.00
2022-10-29T11:51:11.736Z,9.40
2022-10-29T11:53:14.031Z,8.88
2022-10-29T11:55:24.958Z,9.70
2022-10-29T11:57:20.232Z,7.85
2022-10-29T11:59:16.597Z,9.13
2022-10-29T12:01:14.170Z,8.15
2022-10-29T12:03:21.881Z,8.93
2022-10-29T12:05:19.280Z,7.90
2022-10-29T12:07:18.354Z,8.20
2022-10-29T12:09:25.958Z,8.02
2022-10-29T12:11:22.723Z,8.65
2022-10-29T12:13:21.449Z,8.02
2022-10-29T12:15:20.165Z,8.15
2022-10-29T12:17:14.977Z,7.65
2022-10-29T12:19:15.385Z,8.23
2022-10-29T12:21:12.122Z,7.68
2022-10-29T12:23:14.550Z,7.68
2022-10-29T12:25:19.547Z,7.25
2022-10-29T12:27:13.036Z,7.20
2022-10-29T12:29:08.968Z,7.95
2022-10-29T12:31:08.296Z,7.78
2022-10-29T12:33:06.479Z,8.15
2022-10-29T12:35:00.262Z,7.72
2022-10-29T12:36:57.566Z,8.07
2022-10-29T12:38:50.559Z,7.60
2022-10-29T12:40:43.655Z,7.35
2022-10-29T12:42:34.333Z,7.72
2022-10-29T12:44:27.850Z,8.05
2022-10-29T12:46:24.599Z,7.30
2022-10-29T12:48:19.314Z,7.20
2022-10-29T12:50:21.865Z,7.38
2022-10-29T12:52:17.204Z,7.15
2022-10-29T12:54:16.503Z,6.75
2022-10-29T12:56:07.768Z,7.60
2022-10-29T12:57:58.312Z,7.40
2022-10-29T12:59:48.822Z,8.10
2022-10-29T13:04:01.507Z,7.05
2022-10-29T13:05:51.948Z,7.63
2022-10-29T13:08:31.038Z,6.93
2022-10-29T13:10:39.667Z,7.82
2022-10-29T13:12:56.770Z,7.53
2022-10-29T13:14:52.207Z,7.45
2022-10-29T13:16:42.984Z,7.13
2022-10-29T13:18:46.307Z,7.57
2022-10-29T13:20:40.003Z,7.13
2022-10-29T13:22:49.890Z,7.53
2022-10-29T13:24:40.132Z,8.82
2022-10-29T13:26:57.399Z,7.57
2022-10-29T13:28:51.801Z,7.93
2022-10-29T13:30:43.482Z,7.47
2022-10-29T13:32:36.148Z,8.13
2022-10-29T13:34:55.726Z,7.22
2022-10-29T13:36:47.531Z,7.78
2022-10-29T13:38:52.043Z,7.45
2022-10-29T13:41:12.909Z,7.72
2022-10-29T13:43:05.660Z,7.53
2022-10-29T13:44:56.385Z,8.18
2022-10-29T13:46:49.659Z,8.05
2022-10-29T13:48:40.783Z,8.32
2022-10-29T13:50:31.307Z,8.05
2022-10-29T13:52:23.822Z,8.73
2022-10-29T13:54:32.141Z,8.48
2022-10-29T13:56:28.690Z,7.60
2022-10-29T13:58:26.257Z,8.40
2022-10-29T14:00:18.858Z,8.85
2022-10-29T14:02:19.935Z,8.05
2022-10-29T14:04:20.421Z,9.48
2022-10-29T14:06:15.700Z,8.60
2022-10-29T14:08:12.189Z,8.63
2022-10-29T14:10:07.447Z,8.32
2022-10-29T14:12:01.258Z,8.63
2022-10-29T14:13:53.420Z,8.43
2022-10-29T14:16:00.288Z,8.65
2022-10-29T14:17:50.709Z,8.50
2022-10-29T14:19:45.437Z,9.10
2022-10-29T14:21:38.007Z,9.45
2022-10-29T14:23:31.329Z,8.43
2022-10-29T14:25:33.330Z,9.60
2022-10-29T14:27:23.657Z,8.80
2022-10-29T14:29:15.072Z,8.13
2022-10-29T14:31:11.564Z,9.00
2022-10-29T14:33:03.031Z,8.77
2022-10-29T14:34:53.656Z,8.48
2022-10-29T14:36:46.570Z,9.35
2022-10-29T14:38:41.706Z,9.88
2022-10-29T14:40:31.899Z,9.13
2022-10-29T14:42:27.650Z,9.98
2022-10-29T14:44:20.320Z,11.63
2022-10-29T14:46:14.305Z,10.95
2022-10-29T14:48:09.587Z,12.45
2022-10-29T14:50:00.513Z,12.77
2022-10-29T14:51:53.288Z,10.20
2022-10-29T14:53:45.262Z,8.85
2022-10-29T14:55:37.094Z,8.52
2022-10-29T14:57:30.553Z,8.38
2022-10-29T14:59:25.064Z,9.80
2022-10-29T15:01:18.860Z,8.63
2022-10-29T15:03:19.583Z,8.55
2022-10-29T15:05:23.358Z,8.02
2022-10-29T15:07:21.580Z,9.05
2022-10-29T15:09:15.209Z,8.40
2022-10-29T15:11:05.649Z,9.15
2022-10-29T15:12:56.642Z,9.43
2022-10-29T15:14:48.170Z,7.88
2022-10-29T15:16:41.561Z,8.20
2022-10-29T15:18:33.721Z,8.70
2022-10-29T15:20:28.132Z,8.90
2022-10-29T15:22:29.577Z,8.40
2022-10-29T15:24:22.509Z,8.40
2022-10-29T15:26:16.787Z,7.30
2022-10-29T15:28:10.418Z,8.90
2022-10-29T15:30:00.710Z,8.80
2022-10-29T15:31:54.386Z,9.27
2022-10-29T15:33:45.447Z,9.20
2022-10-29T15:35:41.515Z,9.85
2022-10-29T15:37:41.141Z,9.57
2022-10-29T15:40:04.249Z,9.95
2022-10-29T15:41:56.854Z,9.23
2022-10-29T15:43:50.023Z,8.48
2022-10-29T15:45:55.740Z,10.02
2022-10-29T15:47:48.079Z,10.55
2022-10-29T15:49:38.615Z,10.52
2022-10-29T15:51:30.599Z,11.27
2022-10-29T15:53:21.201Z,10.38
2022-10-29T15:55:15.596Z,9.60
2022-10-29T15:57:07.627Z,9.82
2022-10-29T15:58:58.946Z,9.52
2022-10-29T16:00:49.400Z,8.50
2022-10-29T16:02:40.301Z,7.70
2022-10-29T16:04:30.974Z,8.18
2022-10-29T16:06:21.165Z,8.43
2022-10-29T16:08:20.730Z,8.15
2022-10-29T16:10:16.436Z,8.02
2022-10-29T16:12:09.369Z,7.85
2022-10-29T16:14:00.029Z,9.45
2022-10-29T16:15:50.366Z,10.18
2022-10-29T16:17:41.128Z,10.70
2022-10-29T16:19:31.491Z,10.77
2022-10-29T16:21:23.805Z,10.57
2022-10-29T16:23:14.467Z,9.10
2022-10-29T16:25:05.559Z,8.85
2022-10-29T16:26:57.359Z,7.97
2022-10-29T16:28:48.136Z,8.65
2022-10-29T16:32:30.442Z,9.40
2022-10-29T16:34:23.790Z,8.70
2022-10-29T16:36:15.275Z,8.60
2022-10-29T16:38:05.619Z,10.63
2022-10-29T16:39:55.974Z,10.70
2022-10-29T16:41:46.370Z,18.10
2022-10-29T16:43:38.324Z,21.48
2022-10-29T16:45:29.747Z,24.73
2022-10-29T16:47:20.220Z,17.47
2022-10-29T16:49:10.858Z,17.90
2022-10-29T16:51:01.392Z,17.05
2022-10-29T16:52:56.921Z,16.40
2022-10-29T16:54:47.775Z,16.90
2022-10-29T16:56:38.123Z,15.95
2022-10-29T16:58:28.345Z,11.35
2022-10-29T17:00:20.759Z,11.40
2022-10-29T17:02:11.643Z,11.88
2022-10-29T17:04:02.129Z,11.30
2022-10-29T17:05:52.531Z,10.40
2022-10-29T17:07:43.166Z,10.40
2022-10-29T17:09:34.115Z,9.90
2022-10-29T17:11:24.598Z,12.50
2022-10-29T17:13:14.987Z,15.48
2022-10-29T17:15:06.489Z,24.00
2022-10-29T17:16:58.160Z,14.10
2022-10-29T17:18:48.530Z,17.92
2022-10-29T17:20:39.013Z,22.00
2022-10-29T17:22:29.245Z,16.98
2022-10-29T17:24:19.736Z,18.33
2022-10-29T17:26:10.404Z,17.85
2022-10-29T17:28:00.847Z,19.67
2022-10-29T17:29:51.717Z,19.85
2022-10-29T17:31:42.380Z,15.38
2022-10-29T17:33:34.856Z,17.20
2022-10-29T17:35:25.376Z,12.65
2022-10-29T17:37:15.812Z,14.15
2022-10-29T17:39:06.187Z,13.57
2022-10-29T17:40:56.543Z,14.93
2022-10-29T17:42:46.855Z,11.98
2022-10-29T17:44:37.569Z,11.98
2022-10-29T17:46:27.927Z,11.32
2022-10-29T17:48:23.962Z,10.40
2022-10-29T17:50:17.314Z,14.88
2022-10-29T17:52:07.774Z,12.82
2022-10-29T17:53:58.193Z,10.05
2022-10-29T17:55:48.955Z,9.63
2022-10-29T17:57:39.514Z,9.27
2022-10-29T17:59:29.818Z,8.85
2022-10-29T18:01:20.306Z,9.63
2022-10-29T18:03:11.029Z,9.30
2022-10-29T18:05:01.852Z,9.27
2022-10-29T18:06:54.639Z,8.85
2022-10-29T18:08:45.016Z,8.23
2022-10-29T18:10:35.375Z,7.30
2022-10-29T18:12:26.061Z,8.27
2022-10-29T18:14:16.712Z,10.70
2022-10-29T18:16:08.090Z,9.73
2022-10-29T18:17:59.159Z,9.23
2022-10-29T18:19:49.934Z,9.05
2022-10-29T18:21:40.739Z,8.00
2022-10-29T18:23:32.973Z,8.38
2022-10-29T18:25:23.525Z,7.68
2022-10-29T18:27:14.117Z,8.07
2022-10-29T18:29:06.738Z,8.77
2022-10-29T18:30:57.886Z,8.38
2022-10-29T18:32:49.594Z,9.35
2022-10-29T18:34:40.265Z,8.45
2022-10-29T18:36:30.780Z,8.70
2022-10-29T18:38:21.131Z,8.70
2022-10-29T18:40:13.394Z,9.25
2022-10-29T18:42:04.087Z,9.10
2022-10-29T18:43:54.752Z,9.25
2022-10-29T18:45:45.291Z,8.73
2022-10-29T18:47:35.910Z,9.52
2022-10-29T18:49:26.303Z,9.75
2022-10-29T18:51:18.322Z,8.57
2022-10-29T18:53:08.847Z,9.65
2022-10-29T18:54:59.456Z,9.55
2022-10-29T18:56:51.052Z,8.68
2022-10-29T18:58:41.712Z,9.10
2022-10-29T19:00:32.261Z,10.25
2022-10-29T19:02:22.765Z,10.38
2022-10-29T19:04:14.848Z,11.38
2022-10-29T19:06:07.220Z,9.32
2022-10-29T19:07:57.903Z,9.60
2022-10-29T19:09:48.622Z,9.93
2022-10-29T19:11:39.699Z,9.10
2022-10-29T19:13:32.026Z,8.70
2022-10-29T19:15:22.517Z,9.73
2022-10-29T19:17:12.747Z,8.57
2022-10-29T19:21:02.670Z,8.35
2022-10-29T19:22:54.347Z,7.32
2022-10-29T19:24:45.091Z,8.73
2022-10-29T19:26:36.221Z,9.95
2022-10-29T19:28:26.633Z,8.45
2022-10-29T19:30:18.469Z,8.45
2022-10-29T19:32:08.672Z,7.45
2022-10-29T19:34:01.424Z,8.10
2022-10-29T19:35:52.181Z,7.68
2022-10-29T19:37:42.950Z,7.10
2022-10-29T19:39:33.298Z,7.13
2022-10-29T19:41:24.082Z,7.45
2022-10-29T19:43:14.828Z,7.10
2022-10-29T19:45:06.288Z,7.35
2022-10-29T19:47:00.184Z,7.55
2022-10-29T19:48:52.206Z,7.20
2022-10-29T19:52:33.742Z,7.72
2022-10-29T19:54:24.315Z,7.47
2022-10-29T19:56:16.449Z,7.03
2022-10-29T19:58:07.476Z,7.32
2022-10-29T19:59:58.069Z,7.47
2022-10-29T20:01:48.643Z,8.30
2022-10-29T20:03:40.981Z,8.35
2022-10-29T20:07:23.749Z,7.20
2022-10-29T20:09:14.447Z,7.35
2022-10-29T20:11:06.845Z,8.63
2022-10-29T20:12:57.758Z,7.93
2022-10-29T20:14:48.038Z,7.72
2022-10-29T20:16:39.508Z,9.40
2022-10-29T20:18:32.293Z,8.40
2022-10-29T20:20:24.684Z,7.50
2022-10-29T20:22:15.002Z,7.20
2022-10-29T20:24:05.702Z,7.82
2022-10-29T20:25:56.600Z,7.18
2022-10-29T20:27:47.085Z,7.90
2022-10-29T20:29:37.737Z,7.47
2022-10-29T20:31:30.762Z,8.20
2022-10-29T20:33:22.785Z,7.03
2022-10-29T20:35:13.335Z,8.07
2022-10-29T20:37:05.236Z,7.60
2022-10-29T20:38:56.091Z,8.90
2022-10-29T20:40:50.373Z,7.40
2022-10-29T20:42:40.609Z,8.20
2022-10-29T20:44:30.938Z,7.95
2022-10-29T20:46:22.633Z,7.90
2022-10-29T20:48:13.220Z,8.35
2022-10-29T20:50:04.014Z,7.50
2022-10-29T20:51:54.579Z,8.80
2022-10-29T20:53:46.481Z,8.18
2022-10-29T20:55:38.173Z,8.10
2022-10-29T20:57:28.643Z,8.02
2022-10-29T20:59:18.939Z,7.90
2022-10-29T21:01:11.674Z,8.07
2022-10-29T21:03:02.060Z,7.97
2022-10-29T21:04:52.405Z,7.45
2022-10-29T21:06:42.632Z,7.85
2022-10-29T21:08:35.668Z,8.00
2022-10-29T21:10:27.478Z,7.95
2022-10-29T21:12:18.104Z,8.23
2022-10-29T21:14:09.900Z,7.65
2022-10-29T21:16:04.920Z,8.60
2022-10-29T21:17:55.452Z,8.05
2022-10-29T21:19:46.272Z,8.73
2022-10-29T21:21:36.793Z,8.23
2022-10-29T21:23:27.299Z,7.70
2022-10-29T21:25:18.322Z,8.48
2022-10-29T21:27:10.449Z,8.00
2022-10-29T21:29:02.135Z,7.95
2022-10-29T21:30:54.000Z,8.38
2022-10-29T21:32:44.427Z,8.43
2022-10-29T21:34:37.021Z,7.65
2022-10-29T21:36:27.810Z,9.35
2022-10-29T21:38:18.407Z,8.75
2022-10-29T21:40:10.129Z,8.68
2022-10-29T21:42:03.274Z,8.43
2022-10-29T21:43:54.991Z,8.57
2022-10-29T21:45:45.840Z,8.82
2022-10-29T21:47:36.416Z,7.60
2022-10-29T21:49:26.997Z,9.38
2022-10-29T21:51:17.766Z,8.27
2022-10-29T21:53:08.662Z,9.10
2022-10-29T21:54:58.948Z,8.93
2022-10-29T21:56:49.512Z,8.82
2022-10-29T21:58:40.911Z,8.90
2022-10-29T22:00:32.975Z,8.85
2022-10-29T22:02:23.285Z,8.88
2022-10-29T22:04:13.797Z,8.32
2022-10-29T22:06:05.528Z,8.40
2022-10-29T22:07:56.305Z,8.80
2022-10-29T22:09:47.115Z,8.15
2022-10-29T22:11:37.474Z,8.82
2022-10-29T22:13:28.172Z,8.98
2022-10-29T22:15:18.850Z,8.43
2022-10-29T22:17:10.452Z,8.80
2022-10-29T22:19:00.783Z,8.63
2022-10-29T22:20:58.374Z,8.30
2022-10-29T22:22:48.918Z,8.77
2022-10-29T22:24:39.176Z,8.32
2022-10-29T22:26:30.130Z,8.50
2022-10-29T22:28:20.672Z,8.60
2022-10-29T22:30:12.028Z,8.38
2022-10-29T22:32:02.475Z,9.83
2022-10-29T22:33:54.335Z,8.18
2022-10-29T22:35:44.643Z,8.60
2022-10-29T22:37:35.062Z,8.50
2022-10-29T22:39:25.603Z,9.50
2022-10-29T22:41:17.287Z,7.95
2022-10-29T22:43:07.857Z,8.45
2022-10-29T22:44:58.543Z,9.38
2022-10-29T22:46:48.708Z,8.07
2022-10-29T22:48:39.143Z,8.88
2022-10-29T22:50:31.092Z,8.32
2022-10-29T22:52:21.482Z,8.93
2022-10-29T22:54:11.829Z,9.00
2022-10-29T22:56:02.488Z,8.73
2022-10-29T22:57:52.958Z,9.82
2022-10-29T22:59:43.175Z,9.02
2022-10-29T23:01:38.687Z,8.70
2022-10-29T23:03:33.134Z,8.88
2022-10-29T23:05:23.538Z,9.52
2022-10-29T23:07:15.022Z,8.98
2022-10-29T23:09:05.502Z,9.10
2022-10-29T23:10:56.139Z,9.45
2022-10-29T23:12:46.756Z,8.82
2022-10-29T23:14:37.078Z,8.88
2022-10-29T23:16:29.010Z,9.38
2022-10-29T23:18:19.942Z,9.52
2022-10-29T23:20:11.031Z,9.60
2022-10-29T23:22:01.613Z,9.45
2022-10-29T23:23:54.709Z,9.13
2022-10-29T23:25:44.813Z,9.68
2022-10-29T23:27:34.997Z,10.07
2022-10-29T23:29:25.498Z,8.82
2022-10-29T23:31:17.488Z,8.93
2022-10-29T23:33:08.116Z,9.45
2022-10-29T23:34:58.693Z,8.75
2022-10-29T23:36:49.531Z,9.90
2022-10-29T23:38:40.295Z,9.98
2022-10-29T23:40:32.096Z,8.93
2022-10-29T23:42:22.444Z,9.57
2022-10-29T23:44:12.799Z,9.13
2022-10-29T23:46:03.479Z,9.35
2022-10-29T23:47:53.822Z,10.43
2022-10-29T23:49:44.575Z,9.45
2022-10-29T23:53:30.373Z,9.32
2022-10-29T23:55:20.771Z,9.90
2022-10-29T23:57:12.371Z,10.32
2022-10-29T23:59:02.846Z,9.23
